Ruzgar Bey — H8RW — position and weather

sailwx.info

Track history (hours):
 
Tides and Currents Weather Stations Pressure Air Temp Water Temp Dewpoint Dewpoint Depression Visibility Wind Speed Wind Dir Waves Ship Positions

Ruzgar Bey

Last reported at 2018-Jun-13 04:56 UTC. Time now 2018-Jun-19 06:50 UTC.
Position N 40°52' E 028°28'.

Length 108 m; draft 3.4 m.

Type: Cargo ship. MMSI: 373668000.

Date/timePositionNaut miles runAvg speedWind from/ knotsBaromVisibWave heightAir tempDewpointWater temp
2018-Jun-13 04:56N 40°52' E 028°28'4 8.2
2018-Jun-13 04:30N 40°53' E 028°33'18 8.1
2018-Jun-13 02:21N 40°57' E 028°56'3 8.8
2018-Jun-13 01:59N 40°59' E 028°59'510.1
2018-Jun-13 01:29N 41°03' E 029°02'5 9.4
2018-Jun-13 00:59N 41°08' E 029°05'5 7.9
2018-Jun-13 00:22N 41°12' E 029°07'3 7.7
2018-Jun-13 00:00N 41°15' E 029°07'104 4.0
2018-Jun-11 22:09N 41°21' E 031°25'2 7.7
2018-Jun-11 21:56N 41°21' E 031°27'4 8.1
2018-Jun-11 21:27N 41°24' E 031°31'17 7.0
2018-Jun-11 18:59N 41°33' E 031°51'4 6.4
2018-Jun-11 18:23N 41°34' E 031°56'11 6.8
2018-Jun-11 16:48N 41°40' E 032°08'2 6.9
2018-Jun-11 16:30N 41°41' E 032°10'4 7.1
2018-Jun-11 16:00N 41°43' E 032°14'4 7.4
2018-Jun-11 15:30N 41°45' E 032°19'4 7.4
2018-Jun-11 15:00N 41°47' E 032°23'7 7.4
2018-Jun-11 14:07N 41°50' E 032°31'1 7.6
2018-Jun-11 13:58N 41°50' E 032°32'7 7.5
2018-Jun-11 12:58N 41°52' E 032°42'4 7.4
2018-Jun-11 12:30N 41°53' E 032°46'4 7.4
2018-Jun-11 12:00N 41°55' E 032°51'40 3.5
2018-Jun-11 00:38N 41°60' E 033°44'0 0.0
2018-Jun-10 19:47N 41°60' E 033°44'0 0.0
2018-Jun-10 19:17N 41°60' E 033°44'0 0.0
2018-Jun-10 18:59N 41°60' E 033°44'0 0.0
2018-Jun-10 18:23N 41°60' E 033°44'0 0.0
2018-Jun-10 17:35N 41°60' E 033°44'0 0.0
2018-Jun-10 17:05N 41°60' E 033°44'0 0.0
2018-Jun-10 16:41N 41°60' E 033°44'0 0.0
2018-Jun-10 16:23N 41°60' E 033°44'0 0.0
2018-Jun-10 15:35N 41°60' E 033°44'0 0.0
2018-Jun-10 15:29N 41°60' E 033°44'0 0.0
2018-Jun-10 14:50N 41°60' E 033°44'0 0.0
2018-Jun-10 06:57N 41°60' E 033°44'0 0.0
2018-Jun-10 03:41N 41°60' E 033°44'0 0.2
2018-Jun-10 03:30N 41°60' E 033°44'2 2.6
2018-Jun-10 02:45N 42°01' E 033°46'35 6.7
2018-Jun-09 21:29N 42°34' E 034°03'3 6.7
2018-Jun-09 21:00N 42°37' E 034°02'21 6.2
2018-Jun-09 17:35N 42°56' E 034°15'1 7.2
2018-Jun-09 17:29N 42°57' E 034°16'5 7.4
2018-Jun-09 16:45N 43°01' E 034°20'2 7.4
2018-Jun-09 16:30N 43°02' E 034°22'4 7.4
2018-Jun-09 15:55N 43°05' E 034°26'7 7.8
2018-Jun-09 14:59N 43°11' E 034°32'4 8.1
2018-Jun-09 14:29N 43°14' E 034°36'4 8.1
2018-Jun-09 13:59N 43°17' E 034°40'4 8.3
2018-Jun-09 13:30N 43°20' E 034°44'111 7.9
2018-Jun-08 23:28N 44°45' E 036°21'10 7.3
2018-Jun-08 22:06N 44°54' E 036°28'2 7.2
2018-Jun-08 21:50N 44°56' E 036°28'2 7.2
2018-Jun-08 21:30N 44°58' E 036°29'4 7.4
2018-Jun-08 21:01N 45°02' E 036°29'13 7.2
2018-Jun-08 19:12N 45°15' E 036°28'1 6.6
2018-Jun-08 19:00N 45°16' E 036°28'4 6.7
2018-Jun-08 18:26N 45°19' E 036°32'3 7.8
2018-Jun-08 18:01N 45°20' E 036°36'4 7.1
2018-Jun-08 17:30N 45°23' E 036°40'4 7.5
2018-Jun-08 17:00N 45°27' E 036°40'2 3.4
2018-Jun-08 16:28N 45°28' E 036°39'0 0.0
2018-Jun-08 15:58N 45°28' E 036°39'0 0.0
2018-Jun-08 15:28N 45°28' E 036°39'0 0.0
2018-Jun-08 14:58N 45°28' E 036°39'0 0.0
2018-Jun-08 14:31N 45°28' E 036°39'0 0.2
2018-Jun-08 14:00N 45°28' E 036°39'3 6.2
2018-Jun-08 13:30N 45°30' E 036°43'4 7.6
2018-Jun-08 13:00N 45°33' E 036°46'  
2018-Jun-04 16:17N 45°56' E 037°02'2 8.3
2018-Jun-04 16:00N 45°54' E 037°00'4 8.3
2018-Jun-04 15:30N 45°50' E 036°58'4 8.4
2018-Jun-04 15:00N 45°46' E 036°56'4 8.4
2018-Jun-04 14:30N 45°42' E 036°54'4 8.3
2018-Jun-04 14:00N 45°38' E 036°52'4 8.4
2018-Jun-04 13:30N 45°34' E 036°50'4 8.5
2018-Jun-04 13:00N 45°31' E 036°46'4 8.7
2018-Jun-04 12:31N 45°27' E 036°42'4 8.6
2018-Jun-04 12:00N 45°23' E 036°40'4 7.6
2018-Jun-04 11:30N 45°20' E 036°37'5 9.7
2018-Jun-04 11:00N 45°18' E 036°30'3 5.4
2018-Jun-04 10:30N 45°16' E 036°29'3 5.6
2018-Jun-04 10:00N 45°13' E 036°29'2 4.5
2018-Jun-04 09:30N 45°11' E 036°31'0 0.0
2018-Jun-04 09:00N 45°11' E 036°31'0 0.0
2018-Jun-04 08:30N 45°11' E 036°31'0 0.0
2018-Jun-04 08:00N 45°11' E 036°31'0 0.0
2018-Jun-04 07:31N 45°11' E 036°31'0 0.2
2018-Jun-04 06:54N 45°11' E 036°31'3 6.4
2018-Jun-04 06:30N 45°09' E 036°30'4 8.2
2018-Jun-04 06:00N 45°05' E 036°30'4 8.2
2018-Jun-04 05:29N 45°00' E 036°31'32 7.9
2018-Jun-04 01:22N 44°29' E 036°22'15 7.9
2018-Jun-03 23:27N 44°14' E 036°16'4 7.9
2018-Jun-03 23:00N 44°11' E 036°14'4 8.0
2018-Jun-03 22:30N 44°07' E 036°13'4 7.9
2018-Jun-03 22:00N 44°03' E 036°11'  
Track history (hours):
 
Tides and Currents Weather Stations Pressure Air Temp Water Temp Dewpoint Dewpoint Depression Visibility Wind Speed Wind Dir Waves Ship Positions

Ruzgar Bey

Last reported at 2018-Jun-13 04:56 UTC. Time now 2018-Jun-19 06:50 UTC.
Position N 40°52' E 028°28'.

Length 108 m; draft 3.4 m.

Type: Cargo ship. MMSI: 373668000.

Date/timePositionNaut miles runAvg speedWind from/ knotsBaromVisibWave heightAir tempDewpointWater temp
2018-Jun-13 04:56N 40°52' E 028°28'4 8.2
2018-Jun-13 04:30N 40°53' E 028°33'18 8.1
2018-Jun-13 02:21N 40°57' E 028°56'3 8.8
2018-Jun-13 01:59N 40°59' E 028°59'510.1
2018-Jun-13 01:29N 41°03' E 029°02'5 9.4
2018-Jun-13 00:59N 41°08' E 029°05'5 7.9
2018-Jun-13 00:22N 41°12' E 029°07'3 7.7
2018-Jun-13 00:00N 41°15' E 029°07'104 4.0
2018-Jun-11 22:09N 41°21' E 031°25'2 7.7
2018-Jun-11 21:56N 41°21' E 031°27'4 8.1
2018-Jun-11 21:27N 41°24' E 031°31'17 7.0
2018-Jun-11 18:59N 41°33' E 031°51'4 6.4
2018-Jun-11 18:23N 41°34' E 031°56'11 6.8
2018-Jun-11 16:48N 41°40' E 032°08'2 6.9
2018-Jun-11 16:30N 41°41' E 032°10'4 7.1
2018-Jun-11 16:00N 41°43' E 032°14'4 7.4
2018-Jun-11 15:30N 41°45' E 032°19'4 7.4
2018-Jun-11 15:00N 41°47' E 032°23'7 7.4
2018-Jun-11 14:07N 41°50' E 032°31'1 7.6
2018-Jun-11 13:58N 41°50' E 032°32'7 7.5
2018-Jun-11 12:58N 41°52' E 032°42'4 7.4
2018-Jun-11 12:30N 41°53' E 032°46'4 7.4
2018-Jun-11 12:00N 41°55' E 032°51'40 3.5
2018-Jun-11 00:38N 41°60' E 033°44'0 0.0
2018-Jun-10 19:47N 41°60' E 033°44'0 0.0
2018-Jun-10 19:17N 41°60' E 033°44'0 0.0
2018-Jun-10 18:59N 41°60' E 033°44'0 0.0
2018-Jun-10 18:23N 41°60' E 033°44'0 0.0
2018-Jun-10 17:35N 41°60' E 033°44'0 0.0
2018-Jun-10 17:05N 41°60' E 033°44'0 0.0
2018-Jun-10 16:41N 41°60' E 033°44'0 0.0
2018-Jun-10 16:23N 41°60' E 033°44'0 0.0
2018-Jun-10 15:35N 41°60' E 033°44'0 0.0
2018-Jun-10 15:29N 41°60' E 033°44'0 0.0
2018-Jun-10 14:50N 41°60' E 033°44'0 0.0
2018-Jun-10 06:57N 41°60' E 033°44'0 0.0
2018-Jun-10 03:41N 41°60' E 033°44'0 0.2
2018-Jun-10 03:30N 41°60' E 033°44'2 2.6
2018-Jun-10 02:45N 42°01' E 033°46'35 6.7
2018-Jun-09 21:29N 42°34' E 034°03'3 6.7
2018-Jun-09 21:00N 42°37' E 034°02'21 6.2
2018-Jun-09 17:35N 42°56' E 034°15'1 7.2
2018-Jun-09 17:29N 42°57' E 034°16'5 7.4
2018-Jun-09 16:45N 43°01' E 034°20'2 7.4
2018-Jun-09 16:30N 43°02' E 034°22'4 7.4
2018-Jun-09 15:55N 43°05' E 034°26'7 7.8
2018-Jun-09 14:59N 43°11' E 034°32'4 8.1
2018-Jun-09 14:29N 43°14' E 034°36'4 8.1
2018-Jun-09 13:59N 43°17' E 034°40'4 8.3
2018-Jun-09 13:30N 43°20' E 034°44'111 7.9
2018-Jun-08 23:28N 44°45' E 036°21'10 7.3
2018-Jun-08 22:06N 44°54' E 036°28'2 7.2
2018-Jun-08 21:50N 44°56' E 036°28'2 7.2
2018-Jun-08 21:30N 44°58' E 036°29'4 7.4
2018-Jun-08 21:01N 45°02' E 036°29'13 7.2
2018-Jun-08 19:12N 45°15' E 036°28'1 6.6
2018-Jun-08 19:00N 45°16' E 036°28'4 6.7
2018-Jun-08 18:26N 45°19' E 036°32'3 7.8
2018-Jun-08 18:01N 45°20' E 036°36'4 7.1
2018-Jun-08 17:30N 45°23' E 036°40'4 7.5
2018-Jun-08 17:00N 45°27' E 036°40'2 3.4
2018-Jun-08 16:28N 45°28' E 036°39'0 0.0
2018-Jun-08 15:58N 45°28' E 036°39'0 0.0
2018-Jun-08 15:28N 45°28' E 036°39'0 0.0
2018-Jun-08 14:58N 45°28' E 036°39'0 0.0
2018-Jun-08 14:31N 45°28' E 036°39'0 0.2
2018-Jun-08 14:00N 45°28' E 036°39'3 6.2
2018-Jun-08 13:30N 45°30' E 036°43'4 7.6
2018-Jun-08 13:00N 45°33' E 036°46'  
2018-Jun-04 16:17N 45°56' E 037°02'2 8.3
2018-Jun-04 16:00N 45°54' E 037°00'4 8.3
2018-Jun-04 15:30N 45°50' E 036°58'4 8.4
2018-Jun-04 15:00N 45°46' E 036°56'4 8.4
2018-Jun-04 14:30N 45°42' E 036°54'4 8.3
2018-Jun-04 14:00N 45°38' E 036°52'4 8.4
2018-Jun-04 13:30N 45°34' E 036°50'4 8.5
2018-Jun-04 13:00N 45°31' E 036°46'4 8.7
2018-Jun-04 12:31N 45°27' E 036°42'4 8.6
2018-Jun-04 12:00N 45°23' E 036°40'4 7.6
2018-Jun-04 11:30N 45°20' E 036°37'5 9.7
2018-Jun-04 11:00N 45°18' E 036°30'3 5.4
2018-Jun-04 10:30N 45°16' E 036°29'3 5.6
2018-Jun-04 10:00N 45°13' E 036°29'2 4.5
2018-Jun-04 09:30N 45°11' E 036°31'0 0.0
2018-Jun-04 09:00N 45°11' E 036°31'0 0.0
2018-Jun-04 08:30N 45°11' E 036°31'0 0.0
2018-Jun-04 08:00N 45°11' E 036°31'0 0.0
2018-Jun-04 07:31N 45°11' E 036°31'0 0.2
2018-Jun-04 06:54N 45°11' E 036°31'3 6.4
2018-Jun-04 06:30N 45°09' E 036°30'4 8.2
2018-Jun-04 06:00N 45°05' E 036°30'4 8.2
2018-Jun-04 05:29N 45°00' E 036°31'32 7.9
2018-Jun-04 01:22N 44°29' E 036°22'15 7.9
2018-Jun-03 23:27N 44°14' E 036°16'4 7.9
2018-Jun-03 23:00N 44°11' E 036°14'4 8.0
2018-Jun-03 22:30N 44°07' E 036°13'4 7.9
2018-Jun-03 22:00N 44°03' E 036°11'  

Dump ship's entire track history